createdAt,value
2023-03-21T00:00:33.054Z,47.36
2023-03-21T00:01:33.041Z,47.35
2023-03-21T00:02:33.083Z,47.32
2023-03-21T00:03:33.116Z,46.86
2023-03-21T00:04:44.538Z,46.90
2023-03-21T00:05:35.209Z,47.28
2023-03-21T00:06:33.030Z,48.95
2023-03-21T00:07:33.021Z,47.22
2023-03-21T00:08:33.018Z,51.00
2023-03-21T00:09:32.986Z,47.69
2023-03-21T00:10:40.361Z,47.07
2023-03-21T00:11:34.987Z,48.00
2023-03-21T00:12:33.996Z,47.05
2023-03-21T00:13:33.088Z,47.25
2023-03-21T00:14:33.030Z,46.89
2023-03-21T00:15:42.597Z,50.46
2023-03-21T00:16:37.333Z,47.01
2023-03-21T00:17:32.984Z,48.10
2023-03-21T00:18:32.967Z,48.64
2023-03-21T00:19:32.979Z,49.15
2023-03-21T00:20:32.957Z,48.41
2023-03-21T00:21:46.606Z,47.83
2023-03-21T00:22:34.964Z,46.95
2023-03-21T00:23:32.958Z,46.89
2023-03-21T00:24:32.923Z,46.92
2023-03-21T00:25:32.949Z,46.93
2023-03-21T00:26:32.921Z,48.23
2023-03-21T00:27:50.389Z,47.67
2023-03-21T00:28:34.911Z,47.66
2023-03-21T00:29:32.960Z,49.46
2023-03-21T00:30:32.915Z,51.97
2023-03-21T00:31:32.923Z,47.62
2023-03-21T00:32:35.633Z,48.00
2023-03-21T00:33:33.886Z,46.78
2023-03-21T00:34:43.271Z,47.90
2023-03-21T00:35:57.917Z,50.03
2023-03-21T00:36:34.892Z,49.00
2023-03-21T00:37:32.888Z,47.45
2023-03-21T00:38:32.916Z,48.86
2023-03-21T00:39:32.859Z,47.69
2023-03-21T00:40:37.702Z,47.03
2023-03-21T00:41:42.392Z,49.37
2023-03-21T00:42:34.888Z,49.59
2023-03-21T00:43:32.876Z,47.26
2023-03-21T00:44:32.869Z,49.03
2023-03-21T00:45:32.869Z,47.38
2023-03-21T00:46:42.761Z,46.99
2023-03-21T00:47:34.847Z,46.97
2023-03-21T00:48:32.880Z,50.62
2023-03-21T00:49:32.813Z,48.05
2023-03-21T00:50:32.811Z,47.00
2023-03-21T00:51:32.815Z,46.96
2023-03-21T00:52:40.603Z,47.12
2023-03-21T00:53:34.844Z,46.96
2023-03-21T00:54:32.792Z,49.22
2023-03-21T00:55:32.819Z,47.07
2023-03-21T00:56:32.852Z,47.10
2023-03-21T00:57:39.304Z,47.17
2023-03-21T00:58:34.809Z,52.33
2023-03-21T00:59:32.807Z,48.67
2023-03-21T01:00:32.771Z,49.35
2023-03-21T01:01:32.792Z,47.18
2023-03-21T01:02:32.772Z,47.55
2023-03-21T01:03:32.762Z,48.15
2023-03-21T01:04:32.786Z,48.30
2023-03-21T01:05:32.747Z,47.59
2023-03-21T01:06:32.770Z,47.01
2023-03-21T01:07:32.738Z,47.14
2023-03-21T01:08:44.930Z,47.14
2023-03-21T01:09:34.763Z,47.06
2023-03-21T01:10:32.733Z,47.10
2023-03-21T01:11:32.722Z,48.52
2023-03-21T01:12:32.705Z,47.82
2023-03-21T01:13:34.633Z,48.48
2023-03-21T01:14:32.730Z,47.19
2023-03-21T01:15:32.707Z,47.43
2023-03-21T01:16:32.763Z,50.43
2023-03-21T01:17:32.697Z,48.66
2023-03-21T01:18:32.680Z,47.06
2023-03-21T01:19:48.666Z,47.03
2023-03-21T01:20:34.722Z,48.90
2023-03-21T01:21:32.672Z,47.23
2023-03-21T01:22:32.706Z,47.12
2023-03-21T01:23:32.666Z,48.16
2023-03-21T01:24:35.602Z,48.61
2023-03-21T01:25:34.663Z,48.19
2023-03-21T01:26:32.646Z,51.21
2023-03-21T01:27:32.651Z,48.68
2023-03-21T01:28:33.646Z,47.10
2023-03-21T01:29:32.657Z,47.21
2023-03-21T01:30:37.037Z,52.64
2023-03-21T01:31:34.645Z,53.50
2023-03-21T01:32:32.641Z,47.31
2023-03-21T01:33:32.618Z,48.00
2023-03-21T01:34:32.614Z,47.05
2023-03-21T01:35:40.930Z,47.10
2023-03-21T01:36:34.617Z,47.19
2023-03-21T01:37:32.657Z,50.10
2023-03-21T01:38:32.580Z,48.70
2023-03-21T01:39:32.578Z,47.08
2023-03-21T01:40:32.599Z,47.08
2023-03-21T01:41:41.937Z,46.91
2023-03-21T01:42:34.647Z,47.92
2023-03-21T01:43:32.573Z,47.01
2023-03-21T01:44:32.570Z,47.23
2023-03-21T01:45:32.575Z,47.13
2023-03-21T01:46:44.033Z,47.09
2023-03-21T01:47:34.587Z,47.05
2023-03-21T01:48:32.539Z,47.27
2023-03-21T01:49:32.566Z,47.19
2023-03-21T01:50:32.547Z,46.93
2023-03-21T01:51:32.521Z,47.03
2023-03-21T01:52:37.422Z,46.92
2023-03-21T01:53:34.525Z,48.51
2023-03-21T01:54:32.533Z,48.64
2023-03-21T01:55:32.499Z,49.09
2023-03-21T01:56:32.503Z,50.21
2023-03-21T01:57:40.998Z,47.30
2023-03-21T01:58:34.500Z,49.28
2023-03-21T01:59:33.525Z,48.01
2023-03-21T02:00:32.552Z,49.82
2023-03-21T02:01:32.486Z,52.90
2023-03-21T02:02:32.496Z,47.67
2023-03-21T02:03:36.052Z,47.12
2023-03-21T02:04:33.497Z,47.11
2023-03-21T02:05:32.458Z,47.35
2023-03-21T02:06:32.462Z,47.84
2023-03-21T02:07:32.475Z,49.98
2023-03-21T02:08:39.278Z,47.03
2023-03-21T02:09:34.439Z,47.02
2023-03-21T02:10:32.405Z,47.05
2023-03-21T02:11:32.435Z,49.32
2023-03-21T02:12:32.434Z,50.81
2023-03-21T02:13:32.452Z,47.25
2023-03-21T02:14:32.425Z,47.06
2023-03-21T02:15:32.444Z,47.09
2023-03-21T02:16:32.530Z,47.18
2023-03-21T02:17:32.424Z,49.21
2023-03-21T02:18:32.428Z,47.42
2023-03-21T02:19:37.312Z,47.14
2023-03-21T02:20:34.401Z,47.12
2023-03-21T02:21:32.394Z,47.27
2023-03-21T02:22:32.396Z,47.54
2023-03-21T02:23:32.375Z,47.18
2023-03-21T02:24:32.372Z,47.66
2023-03-21T02:25:32.362Z,48.86
2023-03-21T02:26:41.100Z,47.26
2023-03-21T02:27:34.391Z,47.13
2023-03-21T02:28:32.372Z,47.48
2023-03-21T02:29:32.359Z,48.31
2023-03-21T02:30:39.848Z,49.94
2023-03-21T02:31:34.420Z,48.99
2023-03-21T02:32:37.759Z,48.38
2023-03-21T02:33:34.354Z,48.54
2023-03-21T02:34:32.339Z,47.52
2023-03-21T02:35:34.171Z,50.44
2023-03-21T02:36:32.365Z,46.68
2023-03-21T02:37:38.359Z,47.85
2023-03-21T02:38:34.324Z,47.13
2023-03-21T02:39:32.409Z,48.52
2023-03-21T02:40:32.359Z,49.95
2023-03-21T02:41:39.536Z,50.29
2023-03-21T02:42:34.286Z,48.11
2023-03-21T02:43:32.296Z,46.96
2023-03-21T02:44:32.292Z,46.86
2023-03-21T02:45:32.310Z,46.84
2023-03-21T02:46:41.846Z,47.71
2023-03-21T02:47:34.285Z,48.17
2023-03-21T02:48:44.362Z,47.40
2023-03-21T02:49:34.307Z,49.14
2023-03-21T02:50:32.256Z,47.34
2023-03-21T02:51:32.275Z,48.49
2023-03-21T02:52:39.138Z,49.59
2023-03-21T02:53:34.268Z,49.76
2023-03-21T02:54:47.022Z,49.62
2023-03-21T02:55:34.262Z,47.08
2023-03-21T02:56:32.210Z,47.26
2023-03-21T02:57:42.076Z,49.10
2023-03-21T02:58:34.223Z,47.74
2023-03-21T02:59:34.002Z,47.28
2023-03-21T03:00:32.252Z,46.93
2023-03-21T03:01:32.286Z,48.23
2023-03-21T03:02:32.206Z,47.09
2023-03-21T03:03:34.786Z,47.71
2023-03-21T03:04:33.274Z,46.86
2023-03-21T03:05:32.234Z,48.57
2023-03-21T03:06:33.187Z,48.32
2023-03-21T03:07:32.202Z,48.74
2023-03-21T03:08:41.354Z,47.23
2023-03-21T03:09:34.226Z,49.69
2023-03-21T03:10:32.169Z,47.27
2023-03-21T03:11:32.180Z,47.17
2023-03-21T03:12:32.154Z,48.57
2023-03-21T03:13:32.168Z,47.99
2023-03-21T03:14:46.847Z,47.21
2023-03-21T03:15:34.193Z,48.52
2023-03-21T03:16:32.143Z,54.87
2023-03-21T03:17:32.151Z,61.00
2023-03-21T03:18:32.165Z,59.88
2023-03-21T03:19:36.586Z,59.78
2023-03-21T03:20:34.158Z,59.38
2023-03-21T03:21:32.117Z,59.51
2023-03-21T03:22:32.129Z,59.89
2023-03-21T03:23:32.113Z,60.22
2023-03-21T03:24:32.113Z,61.01
2023-03-21T03:25:42.203Z,54.78
2023-03-21T03:26:34.120Z,50.82
2023-03-21T03:27:32.133Z,50.09
2023-03-21T03:28:32.090Z,47.42
2023-03-21T03:29:32.128Z,46.89
2023-03-21T03:30:41.183Z,48.68
2023-03-21T03:31:34.091Z,49.22
2023-03-21T03:32:32.080Z,49.28
2023-03-21T03:33:32.109Z,47.45
2023-03-21T03:34:32.046Z,47.94
2023-03-21T03:35:32.087Z,48.28
2023-03-21T03:36:33.155Z,49.75
2023-03-21T03:37:33.049Z,47.38
2023-03-21T03:38:32.052Z,49.17
2023-03-21T03:39:32.026Z,49.38
2023-03-21T03:40:32.155Z,47.73
2023-03-21T03:41:56.270Z,49.20
2023-03-21T03:42:34.037Z,49.77
2023-03-21T03:43:32.013Z,50.20
2023-03-21T03:44:32.042Z,49.41
2023-03-21T03:45:31.982Z,48.92
2023-03-21T03:46:32.063Z,49.08
2023-03-21T03:47:36.230Z,49.33
2023-03-21T03:48:34.091Z,48.18
2023-03-21T03:49:32.021Z,47.28
2023-03-21T03:50:32.020Z,49.86
2023-03-21T03:51:31.974Z,49.96
2023-03-21T03:52:31.965Z,48.29
2023-03-21T03:53:32.005Z,47.80
2023-03-21T03:54:31.962Z,50.03
2023-03-21T03:55:31.970Z,48.42
2023-03-21T03:56:31.964Z,49.96
2023-03-21T03:57:31.939Z,49.51
2023-03-21T03:58:44.569Z,49.45
2023-03-21T03:59:33.962Z,47.35
2023-03-21T04:00:31.915Z,47.80
2023-03-21T04:01:31.965Z,49.81
2023-03-21T04:02:31.944Z,48.42
2023-03-21T04:03:46.120Z,50.52
2023-03-21T04:04:33.971Z,53.07
2023-03-21T04:05:31.886Z,51.58
2023-03-21T04:06:31.898Z,49.06
2023-03-21T04:07:31.869Z,51.09
2023-03-21T04:08:31.872Z,49.11
2023-03-21T04:09:43.636Z,49.23
2023-03-21T04:10:33.886Z,48.26
2023-03-21T04:11:31.910Z,50.08
2023-03-21T04:12:31.866Z,51.92
2023-03-21T04:13:31.865Z,49.81
2023-03-21T04:14:43.997Z,49.21
2023-03-21T04:15:33.870Z,52.24
2023-03-21T04:16:33.893Z,51.33
2023-03-21T04:17:31.831Z,51.95
2023-03-21T04:18:31.836Z,49.66
2023-03-21T04:19:31.830Z,52.55
2023-03-21T04:20:43.262Z,52.19
2023-03-21T04:21:33.846Z,50.92
2023-03-21T04:22:31.826Z,50.66
2023-03-21T04:23:31.835Z,52.73
2023-03-21T04:24:32.804Z,52.70
2023-03-21T04:25:34.125Z,52.88
2023-03-21T04:26:32.830Z,52.03
2023-03-21T04:27:31.786Z,52.28
2023-03-21T04:28:31.821Z,51.71
2023-03-21T04:29:31.790Z,52.20
2023-03-21T04:30:31.778Z,53.46
2023-03-21T04:31:31.817Z,52.69
2023-03-21T04:32:31.807Z,54.63
2023-03-21T04:33:31.787Z,54.46
2023-03-21T04:34:31.784Z,52.38
2023-03-21T04:35:31.834Z,55.42
2023-03-21T04:36:31.766Z,52.06
2023-03-21T04:37:31.763Z,53.39
2023-03-21T04:38:31.738Z,55.57
2023-03-21T04:39:31.762Z,52.67
2023-03-21T04:40:31.736Z,53.68
2023-03-21T04:41:31.742Z,52.41
2023-03-21T04:42:31.745Z,52.27
2023-03-21T04:43:31.705Z,52.78
2023-03-21T04:44:31.735Z,51.69
2023-03-21T04:45:31.721Z,52.44
2023-03-21T04:46:31.738Z,52.92
2023-03-21T04:47:31.695Z,54.89
2023-03-21T04:48:31.716Z,55.35
2023-03-21T04:49:31.725Z,55.74
2023-03-21T04:50:31.690Z,55.87
2023-03-21T04:51:31.680Z,56.01
2023-03-21T04:52:31.699Z,52.60
2023-03-21T04:53:31.686Z,53.29
2023-03-21T04:54:31.695Z,53.79
2023-03-21T04:55:31.676Z,53.59
2023-03-21T04:56:31.651Z,55.52
2023-03-21T04:57:31.642Z,55.28
2023-03-21T04:58:31.653Z,54.20
2023-03-21T04:59:31.689Z,55.97
2023-03-21T05:00:31.674Z,55.39
2023-03-21T05:01:31.653Z,55.64
2023-03-21T05:02:31.642Z,55.47
2023-03-21T05:03:32.294Z,53.47
2023-03-21T05:04:32.634Z,54.84
2023-03-21T05:05:31.664Z,51.98
2023-03-21T05:06:31.622Z,56.10
2023-03-21T05:07:31.672Z,52.78
2023-03-21T05:08:31.625Z,55.45
2023-03-21T05:09:31.623Z,54.44
2023-03-21T05:10:31.602Z,53.97
2023-03-21T05:11:31.644Z,51.27
2023-03-21T05:12:31.601Z,51.98
2023-03-21T05:13:31.595Z,54.57
2023-03-21T05:14:31.585Z,55.33
2023-03-21T05:15:31.682Z,55.05
2023-03-21T05:16:31.639Z,54.48
2023-03-21T05:17:31.595Z,55.21
2023-03-21T05:18:31.589Z,56.16
2023-03-21T05:19:31.633Z,55.13
2023-03-21T05:20:31.584Z,56.54
2023-03-21T05:21:31.584Z,56.29
2023-03-21T05:22:31.537Z,54.56
2023-03-21T05:23:31.613Z,53.17
2023-03-21T05:24:31.545Z,55.39
2023-03-21T05:25:31.564Z,56.53
2023-03-21T05:26:31.606Z,54.69
2023-03-21T05:27:31.609Z,55.77
2023-03-21T05:28:31.578Z,55.28
2023-03-21T05:29:31.543Z,55.86
2023-03-21T05:30:31.516Z,55.31
2023-03-21T05:31:31.530Z,55.09
2023-03-21T05:32:31.557Z,55.12
2023-03-21T05:33:31.533Z,54.73
2023-03-21T05:34:31.556Z,54.75
2023-03-21T05:35:31.496Z,54.27
2023-03-21T05:36:31.484Z,53.84
2023-03-21T05:37:31.523Z,57.20
2023-03-21T05:38:31.470Z,55.34
2023-03-21T05:39:31.469Z,56.18
2023-03-21T05:40:31.514Z,55.87
2023-03-21T05:41:31.467Z,55.96
2023-03-21T05:42:31.483Z,55.70
2023-03-21T05:43:31.481Z,56.29
2023-03-21T05:44:31.506Z,53.83
2023-03-21T05:45:31.435Z,54.71
2023-03-21T05:46:31.474Z,54.00
2023-03-21T05:47:31.422Z,52.12
2023-03-21T05:48:31.446Z,54.70
2023-03-21T05:49:31.416Z,56.89
2023-03-21T05:50:31.416Z,56.18
2023-03-21T05:51:31.445Z,53.45
2023-03-21T05:52:31.403Z,56.15
2023-03-21T05:53:31.428Z,55.90
2023-03-21T05:54:31.415Z,55.54
2023-03-21T05:55:31.391Z,57.63
2023-03-21T05:56:31.384Z,58.80
2023-03-21T05:57:31.389Z,57.19
2023-03-21T05:58:31.405Z,59.53
2023-03-21T05:59:31.387Z,58.82
2023-03-21T06:00:31.340Z,57.67
2023-03-21T06:01:32.359Z,57.87
2023-03-21T06:02:31.392Z,61.37
2023-03-21T06:03:31.500Z,61.51
2023-03-21T06:04:31.365Z,60.27
2023-03-21T06:05:31.355Z,55.91
2023-03-21T06:06:31.358Z,55.97
2023-03-21T06:07:31.327Z,55.09
2023-03-21T06:08:31.435Z,56.90
2023-03-21T06:09:31.378Z,57.37
2023-03-21T06:10:31.326Z,56.44
2023-03-21T06:11:31.392Z,55.53
2023-03-21T06:12:31.319Z,57.72
2023-03-21T06:13:31.324Z,57.09
2023-03-21T06:14:31.334Z,56.47
2023-03-21T06:15:31.298Z,56.68
2023-03-21T06:16:31.291Z,57.19
2023-03-21T06:17:31.282Z,58.16
2023-03-21T06:18:31.279Z,54.26
2023-03-21T06:19:31.320Z,58.26
2023-03-21T06:20:31.467Z,55.97
2023-03-21T06:21:31.272Z,55.79
2023-03-21T06:22:31.250Z,56.55
2023-03-21T06:23:31.251Z,55.16
2023-03-21T06:24:31.271Z,55.99
2023-03-21T06:25:31.296Z,57.11
2023-03-21T06:26:31.373Z,56.46
2023-03-21T06:27:31.323Z,57.22
2023-03-21T06:28:31.251Z,55.52
2023-03-21T06:29:31.227Z,55.37
2023-03-21T06:30:31.340Z,56.26
2023-03-21T06:31:31.313Z,57.36
2023-03-21T06:32:31.211Z,56.27
2023-03-21T06:33:31.249Z,56.48
2023-03-21T06:34:31.202Z,55.95
2023-03-21T06:35:31.256Z,57.82
2023-03-21T06:36:31.223Z,57.08
2023-03-21T06:37:31.355Z,56.27
2023-03-21T06:38:31.208Z,56.51
2023-03-21T06:39:31.198Z,56.47
2023-03-21T06:40:31.187Z,55.29
2023-03-21T06:41:31.200Z,56.96
2023-03-21T06:42:31.197Z,57.40
2023-03-21T06:43:31.188Z,57.85
2023-03-21T06:44:31.172Z,55.59
2023-03-21T06:45:31.210Z,55.80
2023-03-21T06:46:31.234Z,55.80
2023-03-21T06:47:31.158Z,57.14
2023-03-21T06:48:31.145Z,58.91
2023-03-21T06:49:31.207Z,57.42
2023-03-21T06:50:31.129Z,57.89
2023-03-21T06:51:31.145Z,57.45
2023-03-21T06:52:31.143Z,54.75
2023-03-21T06:53:31.118Z,53.75
2023-03-21T06:54:31.149Z,57.03
2023-03-21T06:55:31.147Z,55.95
2023-03-21T06:56:31.123Z,55.32
2023-03-21T06:57:31.120Z,53.62
2023-03-21T06:58:31.092Z,57.16
2023-03-21T06:59:31.219Z,54.25
2023-03-21T07:00:31.204Z,55.33
2023-03-21T07:01:31.101Z,54.03
2023-03-21T07:02:31.119Z,55.55
2023-03-21T07:03:31.059Z,56.16
2023-03-21T07:04:31.141Z,54.63
2023-03-21T07:05:31.064Z,55.20
2023-03-21T07:06:31.103Z,56.82
2023-03-21T07:07:31.054Z,57.85
2023-03-21T07:08:31.080Z,54.32
2023-03-21T07:09:31.046Z,57.85
2023-03-21T07:10:31.060Z,56.54
2023-03-21T07:11:31.031Z,57.42
2023-03-21T07:12:31.065Z,55.05
2023-03-21T07:13:31.044Z,55.25
2023-03-21T07:14:31.035Z,56.05
2023-03-21T07:15:31.055Z,56.44
2023-03-21T07:16:31.026Z,55.33
2023-03-21T07:17:31.011Z,53.74
2023-03-21T07:18:31.003Z,54.42
2023-03-21T07:19:31.030Z,56.50
2023-03-21T07:20:31.036Z,56.19
2023-03-21T07:21:31.011Z,55.66
2023-03-21T07:22:30.969Z,55.23
2023-03-21T07:23:31.017Z,56.38
2023-03-21T07:24:31.013Z,54.13
2023-03-21T07:25:31.071Z,56.97
2023-03-21T07:26:30.944Z,57.60
2023-03-21T07:27:31.962Z,56.41
2023-03-21T07:28:30.960Z,56.25
2023-03-21T07:29:30.967Z,55.20
2023-03-21T07:30:31.003Z,54.71
2023-03-21T07:31:30.991Z,55.72
2023-03-21T07:32:30.919Z,54.32
2023-03-21T07:33:30.958Z,55.60
2023-03-21T07:34:30.937Z,56.48
2023-03-21T07:35:30.890Z,56.85
2023-03-21T07:36:30.906Z,54.46
2023-03-21T07:37:30.938Z,56.19
2023-03-21T07:38:30.961Z,55.56
2023-03-21T07:39:31.135Z,55.33
2023-03-21T07:40:30.886Z,55.95
2023-03-21T07:41:30.909Z,56.69
2023-03-21T07:43:30.872Z,54.82
2023-03-21T07:44:31.865Z,55.87
2023-03-21T07:45:30.872Z,52.98
2023-03-21T07:46:30.950Z,55.34
2023-03-21T07:47:30.863Z,56.78
2023-03-21T07:48:30.888Z,55.34
2023-03-21T07:49:30.979Z,53.81
2023-03-21T07:50:30.817Z,54.63
2023-03-21T07:51:30.827Z,53.84
2023-03-21T07:52:30.801Z,56.99
2023-03-21T07:53:30.911Z,52.85
2023-03-21T07:54:30.805Z,54.32
2023-03-21T07:55:30.792Z,57.21
2023-03-21T07:56:30.810Z,54.86
2023-03-21T07:57:30.770Z,55.27
2023-03-21T07:58:30.902Z,54.98
2023-03-21T07:59:30.765Z,54.39
2023-03-21T08:00:30.767Z,56.11
2023-03-21T08:01:30.758Z,54.83
2023-03-21T08:02:30.910Z,54.80
2023-03-21T08:03:30.778Z,52.07
2023-03-21T08:04:30.807Z,55.69
2023-03-21T08:05:30.746Z,52.82
2023-03-21T08:06:30.713Z,55.68
2023-03-21T08:07:30.715Z,54.32
2023-03-21T08:08:30.745Z,53.99
2023-03-21T08:09:31.170Z,53.61
2023-03-21T08:10:31.680Z,55.26
2023-03-21T08:11:30.705Z,52.94
2023-03-21T08:12:30.690Z,54.34
2023-03-21T08:13:30.702Z,53.71
2023-03-21T08:14:30.670Z,53.87
2023-03-21T08:15:30.656Z,51.22
2023-03-21T08:16:30.730Z,54.88
2023-03-21T08:17:30.672Z,53.56
2023-03-21T08:18:30.884Z,53.24
2023-03-21T08:19:30.659Z,56.23
2023-03-21T08:20:30.618Z,56.67
2023-03-21T08:21:30.613Z,57.03
2023-03-21T08:22:30.645Z,54.01
2023-03-21T08:23:30.630Z,57.90
2023-03-21T08:24:30.654Z,54.95
2023-03-21T08:25:30.641Z,54.79
2023-03-21T08:26:30.587Z,56.12
2023-03-21T08:27:30.557Z,59.44
2023-03-21T08:28:30.570Z,55.45
2023-03-21T08:29:30.717Z,55.14
2023-03-21T08:30:30.696Z,52.46
2023-03-21T08:31:30.550Z,55.35
2023-03-21T08:32:30.534Z,54.51
2023-03-21T08:33:30.538Z,54.41
2023-03-21T08:34:30.519Z,55.58
2023-03-21T08:35:30.562Z,54.16
2023-03-21T08:36:30.552Z,54.07
2023-03-21T08:37:30.532Z,54.61
2023-03-21T08:38:30.518Z,53.81
2023-03-21T08:39:30.570Z,52.20
2023-03-21T08:40:30.561Z,55.71
2023-03-21T08:41:30.520Z,53.23
2023-03-21T08:42:30.627Z,56.49
2023-03-21T08:43:30.498Z,53.55
2023-03-21T08:44:30.475Z,54.03
2023-03-21T08:45:30.489Z,56.07
2023-03-21T08:46:30.596Z,54.73
2023-03-21T08:47:30.468Z,53.81
2023-03-21T08:48:30.433Z,52.10
2023-03-21T08:49:30.450Z,53.31
2023-03-21T08:50:30.428Z,55.95
2023-03-21T08:51:30.455Z,55.41
2023-03-21T08:52:30.406Z,55.59
2023-03-21T08:53:30.431Z,55.25
2023-03-21T08:54:30.400Z,54.30
2023-03-21T08:55:30.357Z,54.81
2023-03-21T08:56:30.408Z,55.26
2023-03-21T08:57:30.389Z,55.38
2023-03-21T08:58:30.378Z,56.40
2023-03-21T08:59:30.376Z,54.17
2023-03-21T09:00:30.351Z,53.74
2023-03-21T09:01:30.373Z,52.15
2023-03-21T09:02:30.356Z,53.44
2023-03-21T09:03:30.331Z,54.92
2023-03-21T09:04:30.399Z,53.55
2023-03-21T09:05:30.338Z,53.72
2023-03-21T09:06:30.314Z,55.20
2023-03-21T09:07:30.295Z,53.75
2023-03-21T09:08:30.454Z,52.20
2023-03-21T09:09:30.367Z,54.11
2023-03-21T09:10:30.348Z,50.88
2023-03-21T09:11:30.309Z,53.48
2023-03-21T09:12:30.270Z,50.52
2023-03-21T09:13:30.259Z,53.20
2023-03-21T09:14:30.260Z,53.05
2023-03-21T09:15:30.285Z,52.46
2023-03-21T09:16:30.255Z,52.72
2023-03-21T09:17:30.225Z,52.01
2023-03-21T09:18:30.219Z,55.61
2023-03-21T09:19:30.235Z,54.24
2023-03-21T09:20:30.220Z,54.33
2023-03-21T09:21:30.216Z,52.46
2023-03-21T09:22:30.171Z,53.08
2023-03-21T09:23:30.222Z,53.14
2023-03-21T09:24:30.190Z,55.38
2023-03-21T09:25:30.213Z,53.59
2023-03-21T09:26:30.180Z,52.29
2023-03-21T09:27:30.133Z,53.08
2023-03-21T09:28:30.150Z,54.66
2023-03-21T09:29:30.127Z,53.83
2023-03-21T09:30:30.188Z,55.56
2023-03-21T09:31:30.171Z,55.16
2023-03-21T09:32:30.102Z,53.62
2023-03-21T09:33:30.106Z,52.84
2023-03-21T09:34:30.108Z,56.06
2023-03-21T09:35:30.109Z,54.00
2023-03-21T09:36:30.119Z,54.31
2023-03-21T09:37:30.086Z,54.90
2023-03-21T09:38:30.051Z,54.16
2023-03-21T09:39:30.098Z,53.89
2023-03-21T09:40:30.072Z,54.84
2023-03-21T09:41:30.090Z,55.83
2023-03-21T09:42:30.030Z,53.85
2023-03-21T09:43:30.061Z,53.99
2023-03-21T09:44:30.006Z,55.26
2023-03-21T09:45:29.988Z,53.96
2023-03-21T09:46:30.056Z,53.93
2023-03-21T09:47:30.009Z,55.67
2023-03-21T09:48:30.213Z,58.27
2023-03-21T09:49:29.977Z,54.06
2023-03-21T09:50:29.978Z,55.05
2023-03-21T09:51:30.005Z,56.75
2023-03-21T09:52:29.944Z,56.68
2023-03-21T09:53:29.981Z,53.65
2023-03-21T09:54:29.931Z,53.13
2023-03-21T09:55:29.934Z,52.25
2023-03-21T09:56:29.919Z,52.22
2023-03-21T09:57:29.932Z,53.24
2023-03-21T09:58:29.912Z,54.16
2023-03-21T09:59:33.294Z,53.60
2023-03-21T10:00:30.915Z,53.54
2023-03-21T10:01:29.971Z,56.20
2023-03-21T10:02:29.867Z,57.14
2023-03-21T10:03:29.910Z,58.57
2023-03-21T10:04:29.879Z,56.95
2023-03-21T10:05:29.854Z,54.67
2023-03-21T10:06:29.851Z,56.32
2023-03-21T10:07:29.813Z,54.59
2023-03-21T10:08:29.857Z,53.78
2023-03-21T10:09:29.867Z,50.29
2023-03-21T10:10:30.252Z,51.17
2023-03-21T10:11:30.114Z,52.64
2023-03-21T10:12:29.903Z,51.55
2023-03-21T10:13:29.917Z,54.60
2023-03-21T10:14:29.881Z,53.01
2023-03-21T10:15:29.774Z,51.19
2023-03-21T10:16:29.872Z,51.44
2023-03-21T10:17:29.902Z,53.20
2023-03-21T10:18:29.783Z,54.98
2023-03-21T10:19:29.757Z,51.76
2023-03-21T10:20:29.794Z,53.72
2023-03-21T10:21:58.481Z,54.14
2023-03-21T10:22:31.713Z,56.22
2023-03-21T10:23:29.730Z,53.90
2023-03-21T10:24:29.787Z,53.40
2023-03-21T10:25:29.699Z,52.37
2023-03-21T10:26:29.812Z,54.18
2023-03-21T10:27:30.520Z,54.08
2023-03-21T10:28:32.706Z,53.52
2023-03-21T10:29:30.758Z,53.49
2023-03-21T10:30:29.655Z,52.00
2023-03-21T10:31:29.687Z,52.55
2023-03-21T10:32:29.658Z,53.82
2023-03-21T10:33:29.643Z,53.80
2023-03-21T10:34:29.622Z,53.35
2023-03-21T10:35:29.633Z,54.22
2023-03-21T10:36:29.601Z,53.37
2023-03-21T10:37:29.606Z,54.93
2023-03-21T10:38:29.705Z,54.45
2023-03-21T10:39:29.581Z,52.96
2023-03-21T10:40:29.673Z,55.00
2023-03-21T10:41:29.597Z,53.54
2023-03-21T10:42:29.584Z,51.89
2023-03-21T10:43:29.542Z,52.92
2023-03-21T10:44:29.544Z,52.70
2023-03-21T10:45:29.597Z,52.70
2023-03-21T10:46:29.881Z,55.55
2023-03-21T10:47:29.790Z,54.69
2023-03-21T10:48:29.618Z,52.96
2023-03-21T10:49:30.132Z,55.50
2023-03-21T10:50:29.523Z,54.28
2023-03-21T10:51:29.506Z,53.57
2023-03-21T10:52:29.524Z,53.26
2023-03-21T10:53:29.519Z,53.10
2023-03-21T10:54:29.513Z,53.20
2023-03-21T10:55:29.543Z,54.03
2023-03-21T10:56:29.589Z,52.22
2023-03-21T10:57:29.475Z,54.77
2023-03-21T10:58:29.627Z,54.50
2023-03-21T10:59:29.448Z,53.41
2023-03-21T11:00:29.454Z,54.14
2023-03-21T11:01:29.491Z,53.49
2023-03-21T11:02:29.524Z,54.18
2023-03-21T11:03:29.533Z,52.52
2023-03-21T11:04:29.440Z,55.31
2023-03-21T11:05:29.403Z,59.42
2023-03-21T11:06:29.385Z,65.01
2023-03-21T11:07:29.425Z,54.36
2023-03-21T11:08:29.388Z,53.60
2023-03-21T11:09:29.366Z,54.97
2023-03-21T11:10:29.520Z,53.51
2023-03-21T11:11:29.358Z,52.62
2023-03-21T11:12:29.403Z,52.12
2023-03-21T11:13:29.354Z,55.35
2023-03-21T11:14:29.408Z,54.10
2023-03-21T11:15:29.343Z,51.59
2023-03-21T11:16:29.430Z,52.56
2023-03-21T11:17:29.380Z,52.85
2023-03-21T11:18:29.336Z,55.91
2023-03-21T11:19:29.595Z,55.58
2023-03-21T11:20:29.393Z,55.02
2023-03-21T11:21:29.594Z,56.32
2023-03-21T11:22:30.289Z,54.30
2023-03-21T11:23:29.263Z,53.71
2023-03-21T11:24:29.304Z,54.81
2023-03-21T11:25:29.402Z,54.92
2023-03-21T11:26:29.293Z,54.23
2023-03-21T11:27:29.237Z,56.56
2023-03-21T11:28:29.238Z,55.86
2023-03-21T11:29:29.301Z,55.75
2023-03-21T11:30:29.329Z,55.33
2023-03-21T11:31:29.235Z,54.06
2023-03-21T11:32:29.228Z,52.94
2023-03-21T11:33:29.225Z,53.71
2023-03-21T11:34:29.192Z,52.38
2023-03-21T11:35:29.256Z,52.72
2023-03-21T11:36:29.194Z,58.33
2023-03-21T11:37:29.194Z,53.01
2023-03-21T11:38:29.175Z,55.49
2023-03-21T11:39:29.164Z,54.22
2023-03-21T11:40:29.205Z,53.42
2023-03-21T11:41:29.285Z,53.06
2023-03-21T11:42:29.160Z,54.27
2023-03-21T11:43:29.228Z,57.14
2023-03-21T11:44:29.144Z,54.61
2023-03-21T11:45:29.129Z,55.82
2023-03-21T11:46:29.214Z,53.51
2023-03-21T11:47:29.132Z,52.27
2023-03-21T11:48:29.174Z,55.49
2023-03-21T11:49:29.127Z,52.21
2023-03-21T11:50:29.097Z,53.49
2023-03-21T11:51:29.149Z,54.42
2023-03-21T11:52:30.208Z,54.42
2023-03-21T11:53:29.128Z,53.99
2023-03-21T11:54:29.043Z,54.53
2023-03-21T11:55:29.043Z,53.48
2023-03-21T11:56:29.139Z,55.88
2023-03-21T11:57:29.068Z,54.03
2023-03-21T11:58:29.166Z,51.09
2023-03-21T11:59:29.071Z,52.83
2023-03-21T12:00:29.038Z,55.47
2023-03-21T12:01:29.008Z,55.29
2023-03-21T12:02:29.057Z,54.13
2023-03-21T12:03:38.122Z,53.14
2023-03-21T12:04:30.115Z,53.19
2023-03-21T12:05:29.005Z,52.51
2023-03-21T12:06:28.981Z,51.67
2023-03-21T12:07:29.012Z,53.07
2023-03-21T12:08:29.174Z,54.49
2023-03-21T12:09:29.006Z,54.75
2023-03-21T12:10:28.959Z,56.12
2023-03-21T12:11:28.983Z,54.94
2023-03-21T12:12:38.359Z,53.42
2023-03-21T12:13:31.010Z,52.84
2023-03-21T12:14:29.028Z,55.54
2023-03-21T12:15:28.948Z,53.01
2023-03-21T12:16:28.971Z,53.51
2023-03-21T12:17:28.934Z,54.74
2023-03-21T12:18:28.941Z,54.96
2023-03-21T12:19:29.009Z,55.91
2023-03-21T12:20:28.897Z,56.62
2023-03-21T12:21:28.889Z,53.54
2023-03-21T12:22:28.883Z,53.02
2023-03-21T12:23:29.027Z,53.88
2023-03-21T12:24:28.877Z,55.26
2023-03-21T12:25:28.879Z,54.40
2023-03-21T12:26:28.819Z,55.11
2023-03-21T12:27:28.841Z,55.76
2023-03-21T12:28:33.051Z,54.16
2023-03-21T12:29:29.956Z,54.14
2023-03-21T12:30:28.876Z,57.90
2023-03-21T12:31:28.846Z,58.12
2023-03-21T12:32:28.796Z,59.21
2023-03-21T12:33:28.844Z,56.10
2023-03-21T12:34:28.817Z,54.68
2023-03-21T12:35:28.851Z,55.65
2023-03-21T12:36:28.753Z,56.80
2023-03-21T12:37:28.751Z,56.14
2023-03-21T12:38:28.774Z,57.57
2023-03-21T12:39:28.776Z,55.16
2023-03-21T12:40:28.757Z,54.61
2023-03-21T12:41:28.779Z,54.59
2023-03-21T12:42:28.736Z,54.64
2023-03-21T12:43:28.703Z,55.30
2023-03-21T12:44:28.741Z,54.71
2023-03-21T12:45:37.376Z,52.91
2023-03-21T12:46:30.771Z,52.37
2023-03-21T12:47:28.765Z,53.89
2023-03-21T12:48:28.751Z,55.62
2023-03-21T12:49:28.675Z,62.26
2023-03-21T12:50:28.688Z,62.74
2023-03-21T12:51:28.726Z,60.20
2023-03-21T12:52:28.680Z,60.69
2023-03-21T12:53:28.644Z,60.90